This is the latest recevied weather packets stored in our database for station/object DL1AIE-13. If no packets are shown the sender has not sent any weather packets the latest 10 day(s).
| Time | Temp. | Humidity | Pressure | Rain* | Wind** | Luminosity | Snow |
|---|---|---|---|---|---|---|---|
| 1777838848 | 19.44° C | 49% | 1014.1 hPa | 0 mm | - | - | - |
| 1777838244 | 20° C | 48% | 1013.9 hPa | 0 mm | - | - | - |
| 1777837641 | 20° C | 48% | 1013.9 hPa | 0 mm | - | - | - |
| 1777837038 | 18.89° C | 50% | 1013.7 hPa | 0 mm | - | - | - |
| 1777836457 | 18.33° C | 56% | 1013.5 hPa | 0 mm | - | - | - |
| 1777835851 | 18.33° C | 58% | 1013.3 hPa | 0 mm | - | - | - |
| 1777835247 | 17.78° C | 62% | 1013.1 hPa | 0 mm | - | - | - |
| 1777834654 | 17.78° C | 61% | 1012.9 hPa | 0 mm | - | - | - |
| 1777834040 | 18.89° C | 57% | 1012.7 hPa | 0 mm | - | - | - |
| 1777833437 | 18.89° C | 57% | 1012.6 hPa | 0 mm | - | - | - |
| 1777832853 | 18.89° C | 57% | 1012.6 hPa | 0 mm | - | - | - |
| 1777832250 | 19.44° C | 57% | 1012.4 hPa | 0 mm | - | - | - |
| 1777831646 | 20° C | 56% | 1012.5 hPa | 0 mm | - | - | - |
| 1777831043 | 20° C | 52% | 1012.4 hPa | 0 mm | - | - | - |
| 1777830439 | 20.56° C | 55% | 1012.2 hPa | 0 mm | - | - | - |
| 1777829860 | 21.67° C | 48% | 1012.4 hPa | 0 mm | - | - | - |
| 1777829252 | 22.22° C | 43% | 1012.3 hPa | 0 mm | - | - | - |
| 1777828649 | 21.67° C | 43% | 1012.5 hPa | 0 mm | - | - | - |
| 1777828046 | 21.67° C | 46% | 1012.4 hPa | 0 mm | - | - | - |
| 1777827441 | 21.67° C | 48% | 1012.4 hPa | 0 mm | - | - | - |
| 1777826842 | 21.67° C | 46% | 1012.3 hPa | 0 mm | - | - | - |
| 1777826255 | 22.22° C | 44% | 1012.4 hPa | 0 mm | - | - | - |
| 1777825651 | 22.22° C | 43% | 1012.4 hPa | 0 mm | - | - | - |
| 1777825048 | 22.22° C | 45% | 1012.4 hPa | 0 mm | - | - | - |
| 1777824444 | 22.78° C | 41% | 1012.4 hPa | 0 mm | - | - | - |
* Rain latest hour (hover to see other rain measurements)
** Current wind speed in m/s (hover to see current wind gust speed)